createdAt,value
2023-04-22T00:01:50.400Z,16.20
2023-04-22T00:03:54.106Z,16.20
2023-04-22T00:05:57.798Z,16.20
2023-04-22T00:08:01.282Z,16.20
2023-04-22T00:10:26.748Z,16.20
2023-04-22T00:12:30.252Z,16.20
2023-04-22T00:14:35.389Z,16.10
2023-04-22T00:16:38.984Z,16.10
2023-04-22T00:18:42.783Z,16.10
2023-04-22T00:20:46.568Z,16.10
2023-04-22T00:22:50.433Z,16.10
2023-04-22T00:24:53.926Z,16.10
2023-04-22T00:26:57.463Z,16.10
2023-04-22T00:29:10.604Z,16.10
2023-04-22T00:31:15.665Z,16.00
2023-04-22T00:33:19.242Z,16.00
2023-04-22T00:35:23.295Z,15.90
2023-04-22T00:37:26.918Z,15.90
2023-04-22T00:39:30.733Z,16.00
2023-04-22T00:41:34.255Z,16.00
2023-04-22T00:43:37.914Z,15.90
2023-04-22T00:46:01.652Z,16.00
2023-04-22T00:48:06.946Z,16.00
2023-04-22T00:50:10.730Z,16.00
2023-04-22T00:52:14.338Z,16.10
2023-04-22T00:54:18.133Z,16.10
2023-04-22T00:56:21.989Z,16.10
2023-04-22T00:58:26.835Z,16.20
2023-04-22T01:00:30.340Z,16.20
2023-04-22T01:02:53.168Z,16.20
2023-04-22T01:04:58.182Z,16.20
2023-04-22T01:07:01.974Z,16.20
2023-04-22T01:09:05.612Z,16.30
2023-04-22T01:11:08.942Z,16.30
2023-04-22T01:13:12.581Z,16.30
2023-04-22T01:15:15.891Z,16.40
2023-04-22T01:17:20.343Z,16.40
2023-04-22T01:19:24.259Z,16.40
2023-04-22T01:21:29.773Z,16.40
2023-04-22T01:23:35.008Z,16.40
2023-04-22T01:25:38.568Z,16.40
2023-04-22T01:27:42.158Z,16.40
2023-04-22T01:29:45.717Z,16.40
2023-04-22T01:31:49.449Z,16.40
2023-04-22T01:33:54.159Z,16.40
2023-04-22T01:36:13.321Z,16.40
2023-04-22T01:38:16.915Z,16.40
2023-04-22T01:40:22.832Z,16.50
2023-04-22T01:42:26.576Z,16.50
2023-04-22T01:44:30.413Z,16.50
2023-04-22T01:46:34.797Z,16.50
2023-04-22T01:48:39.256Z,16.50
2023-04-22T01:50:42.934Z,16.60
2023-04-22T01:53:34.621Z,16.60
2023-04-22T01:55:39.809Z,16.60
2023-04-22T01:57:43.365Z,16.60
2023-04-22T01:59:46.761Z,16.60
2023-04-22T02:01:53.337Z,16.50
2023-04-22T02:03:57.128Z,16.50
2023-04-22T02:06:00.695Z,16.40
2023-04-22T02:08:04.116Z,16.40
2023-04-22T02:10:09.578Z,16.40
2023-04-22T02:12:14.394Z,16.40
2023-04-22T02:14:17.992Z,16.40
2023-04-22T02:16:21.640Z,16.30
2023-04-22T02:18:37.589Z,16.30
2023-04-22T02:20:41.188Z,16.40
2023-04-22T02:22:44.849Z,16.30
2023-04-22T02:24:48.733Z,16.30
2023-04-22T02:26:52.584Z,16.30
2023-04-22T02:29:09.359Z,16.30
2023-04-22T02:31:13.185Z,16.20
2023-04-22T02:33:16.819Z,16.30
2023-04-22T02:35:20.468Z,16.30
2023-04-22T02:37:24.053Z,16.30
2023-04-22T02:39:27.646Z,16.30
2023-04-22T02:41:31.244Z,16.30
2023-04-22T02:43:35.203Z,16.30
2023-04-22T02:45:56.119Z,16.30
2023-04-22T02:47:59.695Z,16.30
2023-04-22T02:50:03.860Z,16.30
2023-04-22T02:52:07.555Z,16.40
2023-04-22T02:54:11.061Z,16.30
2023-04-22T02:56:17.171Z,16.40
2023-04-22T02:58:20.894Z,16.40
2023-04-22T03:00:24.706Z,16.50
2023-04-22T03:02:29.936Z,16.50
2023-04-22T03:08:00.000Z,16.50
2023-04-22T03:10:03.516Z,16.50
2023-04-22T03:12:07.099Z,16.50
2023-04-22T03:17:26.873Z,16.50
2023-04-22T03:19:32.002Z,16.40
2023-04-22T03:21:35.536Z,16.40
2023-04-22T03:23:39.284Z,16.40
2023-04-22T03:25:42.696Z,16.30
2023-04-22T03:27:46.223Z,16.30
2023-04-22T03:29:49.827Z,16.30
2023-04-22T03:35:11.011Z,16.30
2023-04-22T03:37:14.482Z,16.20
2023-04-22T03:39:17.883Z,16.20
2023-04-22T03:41:21.501Z,16.10
2023-04-22T03:43:25.396Z,16.10
2023-04-22T03:45:28.844Z,16.00
2023-04-22T03:51:00.059Z,15.90
2023-04-22T03:53:03.932Z,15.80
2023-04-22T03:55:08.302Z,15.80
2023-04-22T03:57:11.844Z,15.80
2023-04-22T03:59:15.490Z,15.70
2023-04-22T04:01:19.504Z,15.70
2023-04-22T04:04:33.570Z,15.70
2023-04-22T04:06:39.186Z,15.70
2023-04-22T04:08:42.784Z,15.70
2023-04-22T04:10:46.340Z,15.70
2023-04-22T04:12:50.262Z,15.70
2023-04-22T04:14:54.117Z,15.60
2023-04-22T04:16:58.751Z,15.70
2023-04-22T04:19:02.288Z,15.60
2023-04-22T04:21:06.356Z,15.60
2023-04-22T04:26:38.051Z,15.60
2023-04-22T04:28:41.794Z,15.60
2023-04-22T04:30:45.423Z,15.60
2023-04-22T04:32:48.800Z,15.60
2023-04-22T04:35:02.346Z,15.60
2023-04-22T04:37:06.225Z,15.60
2023-04-22T04:39:09.814Z,15.60
2023-04-22T04:41:14.664Z,15.60
2023-04-22T04:43:19.931Z,15.60
2023-04-22T04:45:23.472Z,15.70
2023-04-22T04:47:26.969Z,15.70
2023-04-22T04:49:31.805Z,15.70
2023-04-22T04:51:35.384Z,15.70
2023-04-22T04:53:49.369Z,15.80
2023-04-22T04:55:52.951Z,15.80
2023-04-22T04:57:56.512Z,15.80
2023-04-22T05:00:01.952Z,15.80
2023-04-22T05:02:05.817Z,15.80
2023-04-22T05:04:09.567Z,15.90
2023-04-22T05:06:13.199Z,15.90
2023-04-22T05:08:16.912Z,16.00
2023-04-22T05:10:20.668Z,16.00
2023-04-22T05:13:04.240Z,16.00
2023-04-22T05:15:10.492Z,16.10
2023-04-22T05:17:14.598Z,16.10
2023-04-22T05:19:18.163Z,16.10
2023-04-22T05:21:21.798Z,16.10
2023-04-22T05:23:25.329Z,16.10
2023-04-22T05:25:28.851Z,16.20
2023-04-22T05:27:35.204Z,16.20
2023-04-22T05:29:48.323Z,16.20
2023-04-22T05:31:53.561Z,16.30
2023-04-22T05:33:57.448Z,16.30
2023-04-22T05:36:01.038Z,16.30
2023-04-22T05:38:12.462Z,16.30
2023-04-22T05:40:16.096Z,16.30
2023-04-22T05:42:19.948Z,16.30
2023-04-22T05:44:23.729Z,16.30
2023-04-22T05:46:33.891Z,16.30
2023-04-22T05:48:39.166Z,16.40
2023-04-22T05:50:42.789Z,16.30
2023-04-22T05:52:46.285Z,16.40
2023-04-22T05:54:50.147Z,16.40
2023-04-22T05:56:53.936Z,16.50
2023-04-22T05:58:57.580Z,16.50
2023-04-22T06:01:01.351Z,16.60
2023-04-22T06:03:05.714Z,16.80
2023-04-22T06:05:11.763Z,16.90
2023-04-22T06:07:15.779Z,17.20
2023-04-22T06:09:20.909Z,17.40
2023-04-22T06:11:24.452Z,17.70
2023-04-22T06:13:27.984Z,17.90
2023-04-22T06:15:31.591Z,18.20
2023-04-22T06:17:35.222Z,18.40
2023-04-22T06:19:39.476Z,18.60
2023-04-22T06:21:44.814Z,18.70
2023-04-22T06:23:48.399Z,18.80
2023-04-22T06:25:52.017Z,18.80
2023-04-22T06:27:55.578Z,18.80
2023-04-22T06:29:59.380Z,18.80
2023-04-22T06:32:03.906Z,18.80
2023-04-22T06:34:07.727Z,18.90
2023-04-22T06:36:11.970Z,19.00
2023-04-22T06:38:17.542Z,19.10
2023-04-22T06:40:21.403Z,19.10
2023-04-22T06:42:25.239Z,19.20
2023-04-22T06:44:29.008Z,19.30
2023-04-22T06:46:33.134Z,19.50
2023-04-22T06:48:36.701Z,19.70
2023-04-22T06:50:40.405Z,19.90
2023-04-22T06:52:44.003Z,19.90
2023-04-22T06:54:49.320Z,20.00
2023-04-22T06:56:53.262Z,20.10
2023-04-22T06:58:57.301Z,20.10
2023-04-22T07:01:01.113Z,20.20
2023-04-22T07:03:04.803Z,20.20
2023-04-22T07:05:09.309Z,20.20
2023-04-22T07:07:12.943Z,20.20
2023-04-22T07:09:16.536Z,20.20
2023-04-22T07:11:21.582Z,20.20
2023-04-22T07:13:27.243Z,20.30
2023-04-22T07:15:31.207Z,20.30
2023-04-22T07:17:34.771Z,20.50
2023-04-22T07:19:38.725Z,20.70
2023-04-22T07:21:42.770Z,20.80
2023-04-22T07:23:46.389Z,20.70
2023-04-22T07:25:50.511Z,20.70
2023-04-22T07:27:55.464Z,20.60
2023-04-22T07:29:59.126Z,20.70
2023-04-22T07:32:02.942Z,20.70
2023-04-22T07:34:06.690Z,20.80
2023-04-22T07:36:10.584Z,20.90
2023-04-22T07:38:14.764Z,21.10
2023-04-22T07:40:18.469Z,21.20
2023-04-22T07:42:22.127Z,21.40
2023-04-22T07:44:27.383Z,21.60
2023-04-22T07:46:31.236Z,21.90
2023-04-22T07:48:34.613Z,22.10
2023-04-22T07:50:38.996Z,22.30
2023-04-22T07:52:42.614Z,22.50
2023-04-22T07:54:46.200Z,22.70
2023-04-22T07:56:49.903Z,22.90
2023-04-22T07:58:53.349Z,23.10
2023-04-22T08:00:58.641Z,23.20
2023-04-22T08:03:02.333Z,23.20
2023-04-22T08:05:07.278Z,23.30
2023-04-22T08:09:17.980Z,23.70
2023-04-22T08:11:21.651Z,23.70
2023-04-22T08:13:25.716Z,23.90
2023-04-22T08:15:29.743Z,24.10
2023-04-22T08:17:34.637Z,24.20
2023-04-22T08:19:38.676Z,24.50
2023-04-22T08:21:43.114Z,24.70
2023-04-22T08:23:47.332Z,25.00
2023-04-22T08:25:51.633Z,24.90
2023-04-22T08:27:55.409Z,24.90
2023-04-22T08:29:59.091Z,24.80
2023-04-22T08:32:02.747Z,24.80
2023-04-22T08:34:07.878Z,25.00
2023-04-22T08:36:11.781Z,25.30
2023-04-22T08:38:15.770Z,25.60
2023-04-22T08:40:19.408Z,25.70
2023-04-22T08:42:23.200Z,25.90
2023-04-22T08:44:27.106Z,26.10
2023-04-22T08:46:31.103Z,26.20
2023-04-22T08:48:35.138Z,26.10
2023-04-22T08:50:40.836Z,26.10
2023-04-22T08:52:44.890Z,26.40
2023-04-22T08:54:48.564Z,26.70
2023-04-22T08:56:52.508Z,27.10
2023-04-22T08:58:56.363Z,27.30
2023-04-22T09:01:01.034Z,27.70
2023-04-22T09:03:04.757Z,28.00
2023-04-22T09:05:09.353Z,28.20
2023-04-22T09:07:15.576Z,28.40
2023-04-22T09:09:19.038Z,28.40
2023-04-22T09:11:22.631Z,28.50
2023-04-22T09:13:26.738Z,28.70
2023-04-22T09:15:31.078Z,28.70
2023-04-22T09:17:35.254Z,28.80
2023-04-22T09:19:38.977Z,28.70
2023-04-22T09:21:42.689Z,28.60
2023-04-22T09:23:52.371Z,28.40
2023-04-22T09:25:57.827Z,28.30
2023-04-22T09:28:02.249Z,28.20
2023-04-22T09:30:09.500Z,28.10
2023-04-22T09:32:13.561Z,28.10
2023-04-22T09:34:17.400Z,28.20
2023-04-22T09:36:24.621Z,28.10
2023-04-22T09:38:32.993Z,28.00
2023-04-22T09:40:39.226Z,27.90
2023-04-22T09:42:50.025Z,27.80
2023-04-22T09:44:54.004Z,27.80
2023-04-22T09:46:57.954Z,27.90
2023-04-22T09:49:01.600Z,28.00
2023-04-22T09:51:06.677Z,28.20
2023-04-22T09:53:11.074Z,28.40
2023-04-22T09:55:15.573Z,28.50
2023-04-22T09:57:21.528Z,28.40
2023-04-22T09:59:26.237Z,28.40
2023-04-22T10:01:37.845Z,28.40
2023-04-22T10:03:41.538Z,28.40
2023-04-22T10:05:46.047Z,28.60
2023-04-22T10:07:49.713Z,28.80
2023-04-22T10:09:53.521Z,29.00
2023-04-22T10:11:58.397Z,29.10
2023-04-22T10:14:03.856Z,29.20
2023-04-22T10:16:07.934Z,29.30
2023-04-22T10:18:13.325Z,29.40
2023-04-22T10:20:18.506Z,29.60
2023-04-22T10:22:21.916Z,29.80
2023-04-22T10:24:27.599Z,29.90
2023-04-22T10:26:41.822Z,30.00
2023-04-22T10:28:45.669Z,30.20
2023-04-22T10:30:50.812Z,30.40
2023-04-22T10:32:54.727Z,30.50
2023-04-22T10:35:12.449Z,30.50
2023-04-22T10:37:19.060Z,30.50
2023-04-22T10:39:23.472Z,30.40
2023-04-22T10:41:27.377Z,30.50
2023-04-22T10:43:43.277Z,30.60
2023-04-22T10:45:46.830Z,30.90
2023-04-22T10:47:52.015Z,31.00
2023-04-22T10:50:11.236Z,31.10
2023-04-22T10:52:18.779Z,31.10
2023-04-22T10:55:02.687Z,31.40
2023-04-22T10:57:07.008Z,31.60
2023-04-22T10:59:17.647Z,31.80
2023-04-22T11:01:21.104Z,31.90
2023-04-22T11:03:30.605Z,32.10
2023-04-22T11:05:35.861Z,32.10
2023-04-22T11:07:40.944Z,32.20
2023-04-22T11:09:46.689Z,32.00
2023-04-22T11:11:50.321Z,31.90
2023-04-22T11:13:53.981Z,32.00
2023-04-22T11:15:57.653Z,31.70
2023-04-22T11:18:01.537Z,31.50
2023-04-22T11:20:07.857Z,31.30
2023-04-22T11:22:12.278Z,31.10
2023-04-22T11:24:20.950Z,31.00
2023-04-22T11:26:35.629Z,31.20
2023-04-22T11:28:47.741Z,31.20
2023-04-22T11:30:51.522Z,31.00
2023-04-22T11:32:55.771Z,30.90
2023-04-22T11:34:59.573Z,30.90
2023-04-22T11:37:04.701Z,31.00
2023-04-22T11:39:15.216Z,31.10
2023-04-22T11:41:23.865Z,31.30
2023-04-22T11:43:27.567Z,31.40
2023-04-22T11:45:32.336Z,31.40
2023-04-22T11:47:36.147Z,31.30
2023-04-22T11:49:40.406Z,31.20
2023-04-22T11:51:55.189Z,31.30
2023-04-22T11:54:00.547Z,31.30
2023-04-22T11:56:05.225Z,31.40
2023-04-22T11:58:09.529Z,31.40
2023-04-22T12:00:17.560Z,31.40
2023-04-22T12:02:21.381Z,31.30
2023-04-22T12:04:25.096Z,31.30
2023-04-22T12:06:31.891Z,31.10
2023-04-22T12:08:37.091Z,31.10
2023-04-22T12:10:47.067Z,31.20
2023-04-22T12:12:51.118Z,31.30
2023-04-22T12:14:55.276Z,31.40
2023-04-22T12:16:58.948Z,31.20
2023-04-22T12:19:02.921Z,31.00
2023-04-22T12:21:10.928Z,30.90
2023-04-22T12:23:17.602Z,30.60
2023-04-22T12:25:21.841Z,30.50
2023-04-22T12:27:27.095Z,30.50
2023-04-22T12:29:32.072Z,30.50
2023-04-22T12:31:35.755Z,30.50
2023-04-22T12:33:39.447Z,30.70
2023-04-22T12:35:43.281Z,30.80
2023-04-22T12:37:46.844Z,30.90
2023-04-22T12:39:51.413Z,30.90
2023-04-22T12:41:55.334Z,30.90
2023-04-22T12:44:00.522Z,30.90
2023-04-22T12:46:04.776Z,30.90
2023-04-22T12:48:08.886Z,31.00
2023-04-22T12:50:12.857Z,31.10
2023-04-22T12:52:16.680Z,31.00
2023-04-22T12:54:21.128Z,30.80
2023-04-22T12:56:25.293Z,30.60
2023-04-22T12:58:29.406Z,30.60
2023-04-22T13:00:35.060Z,30.60
2023-04-22T13:02:39.130Z,30.90
2023-04-22T13:04:43.561Z,30.90
2023-04-22T13:06:47.429Z,30.80
2023-04-22T13:08:51.473Z,30.50
2023-04-22T13:10:55.523Z,30.30
2023-04-22T13:13:10.212Z,30.10
2023-04-22T13:15:20.730Z,30.00
2023-04-22T13:17:26.569Z,29.90
2023-04-22T13:19:32.125Z,29.80
2023-04-22T13:21:36.097Z,29.60
2023-04-22T13:23:40.274Z,29.40
2023-04-22T13:25:44.364Z,29.20
2023-04-22T13:27:48.099Z,29.00
2023-04-22T13:29:52.234Z,28.70
2023-04-22T13:31:56.508Z,28.40
2023-04-22T13:34:01.778Z,28.00
2023-04-22T13:36:05.949Z,27.80
2023-04-22T13:38:09.693Z,27.60
2023-04-22T13:40:14.264Z,27.40
2023-04-22T13:42:18.092Z,27.20
2023-04-22T13:44:21.978Z,27.10
2023-04-22T13:46:26.661Z,26.90
2023-04-22T13:48:31.417Z,26.60
2023-04-22T13:50:36.948Z,26.50
2023-04-22T13:52:40.787Z,26.40
2023-04-22T13:54:44.669Z,26.20
2023-04-22T13:56:48.489Z,26.10
2023-04-22T13:58:52.726Z,25.90
2023-04-22T14:00:56.892Z,25.80
2023-04-22T14:03:01.067Z,25.80
2023-04-22T14:05:06.100Z,25.70
2023-04-22T14:07:11.884Z,25.50
2023-04-22T14:09:15.702Z,25.40
2023-04-22T14:11:19.321Z,25.30
2023-04-22T14:13:23.929Z,25.30
2023-04-22T14:15:27.512Z,25.20
2023-04-22T14:17:31.344Z,25.10
2023-04-22T14:19:37.740Z,25.00
2023-04-22T14:21:41.581Z,25.00
2023-04-22T14:24:14.212Z,24.80
2023-04-22T14:26:17.678Z,24.70
2023-04-22T14:28:22.172Z,24.70
2023-04-22T14:30:26.131Z,24.60
2023-04-22T14:32:29.912Z,24.50
2023-04-22T14:34:34.216Z,24.50
2023-04-22T14:36:37.933Z,24.40
2023-04-22T14:38:41.550Z,24.30
2023-04-22T14:40:46.714Z,24.20
2023-04-22T14:42:51.407Z,24.10
2023-04-22T14:44:55.977Z,24.00
2023-04-22T14:46:59.936Z,23.80
2023-04-22T14:49:03.813Z,23.80
2023-04-22T14:51:07.543Z,23.80
2023-04-22T14:53:11.683Z,23.80
2023-04-22T14:55:22.561Z,23.80
2023-04-22T14:57:28.997Z,23.80
2023-04-22T14:59:32.944Z,23.70
2023-04-22T15:01:37.605Z,23.70
2023-04-22T15:03:42.355Z,23.70
2023-04-22T15:05:49.407Z,23.80
2023-04-22T15:07:54.165Z,23.80
2023-04-22T15:09:59.038Z,23.90
2023-04-22T15:12:05.182Z,23.90
2023-04-22T15:14:10.720Z,23.90
2023-04-22T15:16:14.932Z,24.00
2023-04-22T15:18:18.697Z,24.10
2023-04-22T15:20:22.342Z,24.30
2023-04-22T15:22:26.174Z,24.40
2023-04-22T15:24:29.688Z,24.50
2023-04-22T15:26:33.666Z,24.60
2023-04-22T15:28:38.693Z,24.70
2023-04-22T15:30:44.346Z,24.70
2023-04-22T15:32:48.168Z,24.80
2023-04-22T15:34:51.878Z,24.80
2023-04-22T15:36:55.767Z,24.70
2023-04-22T15:38:59.589Z,24.70
2023-04-22T15:41:03.707Z,24.70
2023-04-22T15:43:07.805Z,24.80
2023-04-22T15:45:12.377Z,25.00
2023-04-22T15:47:18.309Z,25.20
2023-04-22T15:49:22.206Z,25.40
2023-04-22T15:51:26.140Z,25.40
2023-04-22T15:53:29.848Z,25.30
2023-04-22T15:55:33.550Z,25.20
2023-04-22T15:57:37.504Z,25.00
2023-04-22T15:59:41.733Z,24.80
2023-04-22T16:01:46.473Z,24.50
2023-04-22T16:03:52.348Z,24.40
2023-04-22T16:05:56.205Z,24.20
2023-04-22T16:08:00.184Z,24.10
2023-04-22T16:10:03.707Z,24.00
2023-04-22T16:12:07.588Z,23.90
2023-04-22T16:14:12.439Z,23.80
2023-04-22T16:16:16.017Z,23.70
2023-04-22T16:18:19.681Z,23.60
2023-04-22T16:20:25.116Z,23.60
2023-04-22T16:22:29.141Z,23.50
2023-04-22T16:24:33.090Z,23.50
2023-04-22T16:26:36.841Z,23.40
2023-04-22T16:28:41.003Z,23.30
2023-04-22T16:30:44.703Z,23.20
2023-04-22T16:32:48.395Z,23.30
2023-04-22T16:34:52.039Z,23.20
2023-04-22T16:36:57.293Z,23.20
2023-04-22T16:39:00.919Z,23.20
2023-04-22T16:41:04.633Z,23.10
2023-04-22T16:43:09.436Z,23.00
2023-04-22T16:45:13.470Z,22.90
2023-04-22T16:47:17.341Z,22.80
2023-04-22T16:49:21.205Z,22.70
2023-04-22T16:51:24.958Z,22.80
2023-04-22T16:53:30.041Z,22.70
2023-04-22T16:55:35.716Z,22.60
2023-04-22T16:57:42.123Z,22.50
2023-04-22T16:59:45.935Z,22.50
2023-04-22T17:01:49.595Z,22.50
2023-04-22T17:03:55.875Z,22.60
2023-04-22T17:05:59.963Z,22.50
2023-04-22T17:08:03.672Z,22.60
2023-04-22T17:10:10.081Z,22.60
2023-04-22T17:12:13.649Z,22.60
2023-04-22T17:14:17.265Z,22.60
2023-04-22T17:16:21.243Z,22.60
2023-04-22T17:18:25.325Z,22.50
2023-04-22T17:20:29.064Z,22.50
2023-04-22T17:22:32.755Z,22.40
2023-04-22T17:24:37.054Z,22.40
2023-04-22T17:26:42.478Z,22.40
2023-04-22T17:28:46.315Z,22.30
2023-04-22T17:30:50.164Z,22.30
2023-04-22T17:32:54.137Z,22.30
2023-04-22T17:34:57.881Z,22.30
2023-04-22T17:37:01.853Z,22.20
2023-04-22T17:39:05.546Z,22.20
2023-04-22T17:41:09.425Z,22.20
2023-04-22T17:43:14.444Z,22.10
2023-04-22T17:45:17.925Z,22.10
2023-04-22T17:47:21.807Z,22.10
2023-04-22T17:49:25.550Z,22.10
2023-04-22T17:51:29.276Z,22.00
2023-04-22T17:53:33.871Z,21.90
2023-04-22T17:55:40.017Z,21.90
2023-04-22T17:57:43.731Z,21.80
2023-04-22T17:59:48.907Z,21.80
2023-04-22T18:01:52.828Z,21.80
2023-04-22T18:03:56.808Z,21.70
2023-04-22T18:06:00.533Z,21.70
2023-04-22T18:08:04.560Z,21.60
2023-04-22T18:10:09.654Z,21.60
2023-04-22T18:12:13.367Z,21.50
2023-04-22T18:14:17.229Z,21.50
2023-04-22T18:16:22.397Z,21.40
2023-04-22T18:18:26.621Z,21.40
2023-04-22T18:20:30.182Z,21.30
2023-04-22T18:22:33.832Z,21.30
2023-04-22T18:24:37.499Z,21.20
2023-04-22T18:26:41.170Z,21.20
2023-04-22T18:28:45.242Z,21.10
2023-04-22T18:30:48.807Z,21.10
2023-04-22T18:32:53.990Z,21.10
2023-04-22T18:34:57.706Z,21.10
2023-04-22T18:37:01.830Z,21.00
2023-04-22T18:39:06.367Z,21.00
2023-04-22T18:41:13.150Z,20.90
2023-04-22T18:43:16.779Z,20.80
2023-04-22T18:45:23.129Z,20.80
2023-04-22T18:47:27.384Z,20.80
2023-04-22T18:49:33.907Z,20.70
2023-04-22T18:51:39.267Z,20.60
2023-04-22T18:53:44.188Z,20.50
2023-04-22T18:55:47.797Z,20.50
2023-04-22T18:57:51.700Z,20.40
2023-04-22T18:59:55.882Z,20.30
2023-04-22T19:01:59.739Z,20.10
2023-04-22T19:04:04.331Z,20.00
2023-04-22T19:06:09.665Z,19.80
2023-04-22T19:08:13.227Z,19.70
2023-04-22T19:10:16.728Z,19.60
2023-04-22T19:12:20.205Z,19.50
2023-04-22T19:14:23.726Z,19.60
2023-04-22T19:16:28.130Z,19.40
2023-04-22T19:18:32.163Z,19.40
2023-04-22T19:20:35.680Z,19.30
2023-04-22T19:22:40.815Z,19.20
2023-04-22T19:24:44.446Z,19.20
2023-04-22T19:26:48.113Z,19.20
2023-04-22T19:28:57.078Z,19.10
2023-04-22T19:31:01.198Z,19.10
2023-04-22T19:33:04.892Z,19.10
2023-04-22T19:35:09.117Z,19.10
2023-04-22T19:37:12.609Z,19.00
2023-04-22T19:39:18.283Z,19.00
2023-04-22T19:41:22.058Z,19.10
2023-04-22T19:43:26.491Z,19.00
2023-04-22T19:45:30.557Z,19.00
2023-04-22T19:47:34.769Z,19.00
2023-04-22T19:49:41.153Z,19.00
2023-04-22T19:51:48.620Z,19.00
2023-04-22T19:53:52.565Z,18.90
2023-04-22T19:55:57.586Z,18.80
2023-04-22T19:58:01.238Z,18.80
2023-04-22T20:00:07.080Z,18.70
2023-04-22T20:02:11.595Z,18.70
2023-04-22T20:04:16.208Z,18.70
2023-04-22T20:06:22.295Z,18.70
2023-04-22T20:08:27.092Z,18.60
2023-04-22T20:10:31.456Z,18.60
2023-04-22T20:12:37.052Z,18.60
2023-04-22T20:14:42.046Z,18.60
2023-04-22T20:16:47.889Z,18.60
2023-04-22T20:18:52.508Z,18.60
2023-04-22T20:20:58.617Z,18.50
2023-04-22T20:23:08.170Z,18.50
2023-04-22T20:25:14.012Z,18.40
2023-04-22T20:27:18.060Z,18.40
2023-04-22T20:29:23.444Z,18.40
2023-04-22T20:31:27.684Z,18.40
2023-04-22T20:33:31.462Z,18.40
2023-04-22T20:35:36.121Z,18.40
2023-04-22T20:37:39.938Z,18.50
2023-04-22T20:39:43.745Z,18.50
2023-04-22T20:41:47.463Z,18.40
2023-04-22T20:43:51.130Z,18.40
2023-04-22T20:45:56.534Z,18.40
2023-04-22T20:48:00.597Z,18.40
2023-04-22T20:50:04.502Z,18.40
2023-04-22T20:52:08.763Z,18.40
2023-04-22T20:54:27.949Z,18.40
2023-04-22T20:56:32.683Z,18.40
2023-04-22T20:58:36.291Z,18.40
2023-04-22T21:00:39.885Z,18.30
2023-04-22T21:02:45.130Z,18.30
2023-04-22T21:04:49.102Z,18.20
2023-04-22T21:06:53.502Z,18.30
2023-04-22T21:08:57.301Z,18.20
2023-04-22T21:11:08.729Z,18.20
2023-04-22T21:13:12.618Z,18.10
2023-04-22T21:15:16.933Z,18.10
2023-04-22T21:17:22.439Z,18.00
2023-04-22T21:19:37.228Z,18.00
2023-04-22T21:21:40.712Z,18.00
2023-04-22T21:23:44.852Z,18.00
2023-04-22T21:25:48.706Z,17.90
2023-04-22T21:27:52.739Z,17.90
2023-04-22T21:29:58.769Z,17.80
2023-04-22T21:32:09.242Z,17.70
2023-04-22T21:34:13.329Z,17.70
2023-04-22T21:36:18.266Z,17.70
2023-04-22T21:38:22.095Z,17.70
2023-04-22T21:40:26.123Z,17.70
2023-04-22T21:42:29.939Z,17.60
2023-04-22T21:44:33.406Z,17.70
2023-04-22T21:46:37.530Z,17.60
2023-04-22T21:48:41.091Z,17.70
2023-04-22T21:50:44.794Z,17.70
2023-04-22T21:52:50.480Z,17.60
2023-04-22T21:54:54.056Z,17.60
2023-04-22T21:56:57.914Z,17.60
2023-04-22T21:59:01.647Z,17.60
2023-04-22T22:01:05.246Z,17.60
2023-04-22T22:03:09.023Z,17.60
2023-04-22T22:05:14.634Z,17.60
2023-04-22T22:07:18.148Z,17.60
2023-04-22T22:09:23.111Z,17.60
2023-04-22T22:11:31.389Z,17.60
2023-04-22T22:13:35.184Z,17.50
2023-04-22T22:15:38.918Z,17.60
2023-04-22T22:17:42.795Z,17.60
2023-04-22T22:19:49.643Z,17.60
2023-04-22T22:21:53.502Z,17.60
2023-04-22T22:23:57.785Z,17.50
2023-04-22T22:26:02.718Z,17.50
2023-04-22T22:28:06.336Z,17.40
2023-04-22T22:30:11.026Z,17.40
2023-04-22T22:32:14.706Z,17.40
2023-04-22T22:34:18.237Z,17.40
2023-04-22T22:36:21.736Z,17.40
2023-04-22T22:38:25.384Z,17.30
2023-04-22T22:40:28.914Z,17.30
2023-04-22T22:42:33.787Z,17.30
2023-04-22T22:44:47.746Z,17.30
2023-04-22T22:46:51.198Z,17.30
2023-04-22T22:48:54.726Z,17.30
2023-04-22T22:50:58.536Z,17.30
2023-04-22T22:53:01.978Z,17.20
2023-04-22T22:55:06.239Z,17.30
2023-04-22T22:57:15.087Z,17.20
2023-04-22T22:59:20.052Z,17.20
2023-04-22T23:01:23.993Z,17.20
2023-04-22T23:03:27.915Z,17.10
2023-04-22T23:05:32.104Z,17.10
2023-04-22T23:07:36.052Z,17.10
2023-04-22T23:09:39.521Z,17.10
2023-04-22T23:11:42.996Z,17.00
2023-04-22T23:13:46.678Z,17.00
2023-04-22T23:15:51.493Z,17.10
2023-04-22T23:17:55.169Z,17.10
2023-04-22T23:19:58.972Z,17.10
2023-04-22T23:22:05.112Z,17.00
2023-04-22T23:24:09.285Z,17.00
2023-04-22T23:26:13.561Z,16.90
2023-04-22T23:28:17.493Z,16.90
2023-04-22T23:30:22.102Z,17.00
2023-04-22T23:32:27.694Z,16.90
2023-04-22T23:34:31.227Z,16.90
2023-04-22T23:36:36.722Z,16.80
2023-04-22T23:38:40.478Z,16.80
2023-04-22T23:40:43.975Z,16.80
2023-04-22T23:43:06.351Z,16.80
2023-04-22T23:45:11.203Z,16.80
2023-04-22T23:47:14.819Z,16.80
2023-04-22T23:49:19.614Z,16.80
2023-04-22T23:51:30.837Z,16.70
2023-04-22T23:53:34.376Z,16.70
2023-04-22T23:55:38.641Z,16.70
2023-04-22T23:57:42.723Z,16.70
2023-04-22T23:59:46.638Z,16.70
